Time;durP1;ratioP1;P1;durP2;ratioP2;P2;SDS_P1;SDS_P2;PMS_P1;PMS_P2;Temp;Humidity;BMP_temperature;BMP_pressure;BME280_temperature;BME280_humidity;BME280_pressure;Samples;Min_cycle;Max_cycle;Signal;HPM_P1;HPM_P2
2022/07/29 00:01:41;;;;;;;5.60;5.30;;;;;;;13.10;86.75;102117.44;5012737;28;20463;-44
2022/07/29 00:04:09;;;;;;;4.90;4.70;;;;;;;13.04;86.36;102118.97;5012771;28;20433;-43
2022/07/29 00:06:37;;;;;;;6.17;5.87;;;;;;;13.00;86.54;102119.50;5013056;28;20489;-44
2022/07/29 00:09:05;;;;;;;5.17;4.87;;;;;;;12.97;87.02;102109.97;5012685;28;20437;-42
2022/07/29 00:11:33;;;;;;;5.70;5.40;;;;;;;12.95;87.60;102117.38;5012407;28;20472;-42
2022/07/29 00:14:02;;;;;;;6.93;5.80;;;;;;;12.95;87.33;102113.84;5012296;28;20452;-41
2022/07/29 00:16:29;;;;;;;5.57;5.17;;;;;;;12.91;87.59;102115.22;5012846;28;20457;-42
2022/07/29 00:18:57;;;;;;;5.70;5.30;;;;;;;12.89;87.53;102109.22;5012636;28;20799;-42
2022/07/29 00:21:28;;;;;;;5.60;5.10;;;;;;;12.89;87.98;102109.22;5012218;28;20488;-42
2022/07/29 00:23:56;;;;;;;6.10;5.60;;;;;;;12.88;88.33;102103.03;5012432;28;20460;-43
2022/07/29 00:26:24;;;;;;;5.50;5.30;;;;;;;12.86;88.03;102110.41;5012208;28;20978;-44
2022/07/29 00:28:51;;;;;;;7.27;5.07;;;;;;;12.82;88.12;102103.72;5012564;28;20441;-44
2022/07/29 00:31:40;;;;;;;5.57;5.30;;;;;;;12.81;88.09;102106.59;5012069;28;20464;-43
2022/07/29 00:35:43;;;;;;;6.00;5.10;;;;;;;12.77;88.26;102106.97;5012000;28;20966;-44
2022/07/29 00:36:55;;;;;;;5.47;5.17;;;;;;;12.74;88.34;102106.47;5012106;28;20449;-46
2022/07/29 00:39:22;;;;;;;6.17;5.63;;;;;;;12.70;88.58;102107.81;5012499;28;20433;-46
2022/07/29 00:41:51;;;;;;;6.00;5.50;;;;;;;12.67;88.80;102109.03;5011861;28;20461;-44
2022/07/29 00:44:19;;;;;;;5.20;4.90;;;;;;;12.65;88.72;102108.38;5012185;28;20445;-45
2022/07/29 00:46:48;;;;;;;5.93;5.53;;;;;;;12.63;88.64;102105.03;5011857;28;20483;-42
2022/07/29 00:49:16;;;;;;;5.43;5.10;;;;;;;12.61;88.73;102111.56;5014880;28;20437;-46
2022/07/29 00:51:44;;;;;;;5.23;5.00;;;;;;;12.58;89.07;102101.22;5010243;28;20475;-44
2022/07/29 00:54:13;;;;;;;6.80;5.60;;;;;;;12.57;89.08;102112.94;5013207;28;20487;-45
2022/07/29 00:56:41;;;;;;;5.30;4.90;;;;;;;12.55;89.10;102115.78;5014278;28;20452;-46
2022/07/29 00:59:08;;;;;;;5.53;5.10;;;;;;;12.54;89.59;102108.78;5015849;28;20432;-47
2022/07/29 01:01:36;;;;;;;5.60;5.20;;;;;;;12.56;89.70;102111.28;5015068;28;20468;-46
2022/07/29 01:04:07;;;;;;;6.53;5.93;;;;;;;12.57;90.23;102116.44;5015658;28;20494;-43
2022/07/29 01:06:36;;;;;;;5.40;5.00;;;;;;;12.55;90.00;102117.63;5015812;28;20854;-44
2022/07/29 01:09:03;;;;;;;5.77;5.27;;;;;;;12.52;90.14;102116.13;5015693;28;20433;-47
2022/07/29 01:11:32;;;;;;;5.53;5.13;;;;;;;12.48;89.99;102120.19;5015221;28;20468;-44
2022/07/29 01:14:00;;;;;;;5.87;5.37;;;;;;;12.45;89.57;102115.19;5015183;28;20432;-48
2022/07/29 01:16:32;;;;;;;6.47;6.00;;;;;;;12.43;89.73;102109.16;5013946;28;21210;-44
2022/07/29 01:19:13;;;;;;;5.70;5.30;;;;;;;12.40;89.82;102108.66;5014086;28;20428;-49
2022/07/29 01:21:52;;;;;;;5.50;5.17;;;;;;;12.38;89.62;102111.53;5013748;28;20487;-46
2022/07/29 01:24:55;;;;;;;5.93;5.53;;;;;;;12.39;90.00;102112.38;5012551;28;20435;-43
2022/07/29 01:27:39;;;;;;;5.20;5.00;;;;;;;12.36;90.01;102102.03;5008783;28;20482;-44
2022/07/29 01:30:11;;;;;;;5.60;5.30;;;;;;;12.36;90.26;102102.03;5015297;28;20448;-41
2022/07/29 01:32:47;;;;;;;5.67;5.27;;;;;;;12.36;90.71;102099.34;5014621;28;20469;-45
2022/07/29 01:35:20;;;;;;;5.77;5.33;;;;;;;12.35;90.41;102097.66;5007672;28;20429;-42
2022/07/29 01:37:53;;;;;;;5.40;5.00;;;;;;;12.31;90.32;102091.84;5013718;28;20453;-45
2022/07/29 01:40:24;;;;;;;5.40;5.07;;;;;;;12.30;90.72;102092.88;5015143;28;20453;-42
2022/07/29 01:42:55;;;;;;;6.37;4.90;;;;;;;12.25;90.41;102099.72;5014312;28;20552;-44
2022/07/29 01:45:29;;;;;;;5.50;5.20;;;;;;;12.20;90.12;102097.56;5014630;28;20429;-43
2022/07/29 01:48:01;;;;;;;5.70;5.30;;;;;;;12.12;89.93;102094.94;5015205;28;20838;-44
2022/07/29 01:50:34;;;;;;;5.53;5.03;;;;;;;12.03;89.55;102104.00;5013864;28;20425;-46
2022/07/29 01:53:05;;;;;;;6.13;5.63;;;;;;;11.95;89.69;102099.50;5012984;28;20503;-44
2022/07/29 01:55:43;;;;;;;6.03;5.70;;;;;;;11.88;89.69;102095.03;5013540;28;20425;-44
2022/07/29 01:58:13;;;;;;;6.00;5.50;;;;;;;11.79;89.35;102099.59;5013712;28;20425;-42
2022/07/29 02:00:45;;;;;;;5.60;5.30;;;;;;;11.77;90.04;102098.09;5013446;28;20428;-41
2022/07/29 02:03:15;;;;;;;5.87;5.33;;;;;;;11.77;90.78;102090.88;5012005;28;20465;-44
2022/07/29 02:05:45;;;;;;;6.10;5.70;;;;;;;11.79;91.17;102094.25;5013889;28;20429;-50
2022/07/29 02:08:14;;;;;;;7.20;6.33;;;;;;;11.82;91.66;102087.72;5006582;28;20473;-47
2022/07/29 02:10:45;;;;;;;6.47;5.90;;;;;;;11.86;92.27;102081.00;5014691;28;20448;-41
2022/07/29 02:13:14;;;;;;;7.30;6.70;;;;;;;11.89;92.80;102080.66;5013838;28;20461;-45
2022/07/29 02:15:45;;;;;;;6.80;6.30;;;;;;;11.91;93.21;102084.84;5014520;28;20435;-46
2022/07/29 02:18:17;;;;;;;7.00;6.50;;;;;;;11.97;94.21;102078.81;5014504;28;20440;-44
2022/07/29 02:20:47;;;;;;;7.43;5.83;;;;;;;11.99;95.92;102074.09;5014428;28;20444;-44
2022/07/29 02:23:19;;;;;;;6.87;6.27;;;;;;;11.99;96.13;102073.28;5014062;28;20450;-45
2022/07/29 02:25:50;;;;;;;6.77;6.37;;;;;;;12.01;96.54;102082.78;5014588;28;20453;-45
2022/07/29 02:28:20;;;;;;;7.00;6.50;;;;;;;12.02;97.48;102073.75;5014625;28;20843;-42
2022/07/29 02:30:51;;;;;;;6.73;6.20;;;;;;;12.03;97.49;102074.59;5014020;28;20425;-42
2022/07/29 02:33:20;;;;;;;7.07;6.43;;;;;;;12.05;97.83;102077.94;5014185;28;20439;-44
2022/07/29 02:35:49;;;;;;;6.17;5.77;;;;;;;12.05;98.11;102078.75;5014062;28;21028;-42
2022/07/29 02:41:23;;;;;;;5.60;5.30;;;;;;;11.96;97.54;102084.31;4972576;28;20462;-41
2022/07/29 02:43:54;;;;;;;6.40;5.97;;;;;;;11.86;97.14;102078.31;4972775;28;20450;-42
2022/07/29 02:46:30;;;;;;;5.83;5.50;;;;;;;11.82;96.81;102077.03;4983542;28;20465;-44
2022/07/29 02:49:02;;;;;;;5.93;5.50;;;;;;;11.77;96.68;102082.06;4994910;28;20481;-43
2022/07/29 02:51:38;;;;;;;5.60;5.20;;;;;;;11.71;96.03;102080.06;4994185;28;20466;-44
2022/07/29 02:54:15;;;;;;;6.17;5.87;;;;;;;11.68;96.16;102068.66;4993962;28;20430;-43
2022/07/29 02:56:45;;;;;;;7.00;6.40;;;;;;;11.72;96.60;102081.72;4994345;28;20493;-43
2022/07/29 02:59:17;;;;;;;7.30;6.43;;;;;;;11.73;96.88;102075.38;4994486;28;20434;-44
2022/07/29 03:01:47;;;;;;;7.70;6.30;;;;;;;11.72;96.51;102079.03;4994268;28;20824;-41
2022/07/29 03:04:17;;;;;;;7.70;7.10;;;;;;;11.75;97.51;102078.69;4994254;28;20469;-42
2022/07/29 03:06:46;;;;;;;7.27;6.87;;;;;;;11.76;97.59;102078.53;4994291;28;20497;-42
2022/07/29 03:09:14;;;;;;;7.00;6.60;;;;;;;11.80;97.63;102079.03;4994363;28;20474;-42
2022/07/29 03:11:45;;;;;;;7.30;6.70;;;;;;;11.86;98.29;102075.66;4993377;28;20475;-44
2022/07/29 03:14:19;;;;;;;7.63;6.90;;;;;;;11.91;98.63;102076.81;4993843;28;20980;-43
2022/07/29 03:16:50;;;;;;;8.30;7.70;;;;;;;11.94;98.73;102065.78;4994174;28;20462;-42
2022/07/29 03:19:18;;;;;;;8.27;7.57;;;;;;;12.00;98.87;102065.09;4994033;28;20440;-43
2022/07/29 03:21:45;;;;;;;7.97;7.47;;;;;;;12.05;99.40;102061.88;4993650;28;20835;-43
2022/07/29 03:24:25;;;;;;;10.63;7.97;;;;;;;12.10;100.00;102062.19;4993869;28;20434;-45
2022/07/29 03:26:53;;;;;;;8.80;7.90;;;;;;;12.14;100.00;102058.16;4994342;28;20462;-42
2022/07/29 03:29:21;;;;;;;8.57;7.90;;;;;;;12.21;100.00;102053.78;4993673;28;20869;-42
2022/07/29 03:31:52;;;;;;;7.77;7.17;;;;;;;12.26;100.00;102055.94;4993624;28;20466;-46
2022/07/29 03:34:21;;;;;;;7.03;6.60;;;;;;;12.30;100.00;102052.75;4985853;28;20441;-42
2022/07/29 03:36:50;;;;;;;9.20;8.50;;;;;;;12.39;100.00;102061.53;4993563;28;20974;-43
2022/07/29 03:39:22;;;;;;;8.53;7.30;;;;;;;12.46;100.00;102051.78;4993489;28;20969;-42
2022/07/29 03:41:53;;;;;;;8.63;8.03;;;;;;;12.53;100.00;102048.25;4993275;28;20466;-42
2022/07/29 03:44:23;;;;;;;7.83;7.30;;;;;;;12.63;100.00;102051.50;4993400;28;20446;-45
2022/07/29 03:46:55;;;;;;;8.27;7.43;;;;;;;12.72;100.00;102054.97;4993275;28;20466;-46
2022/07/29 03:49:24;;;;;;;7.57;7.07;;;;;;;12.84;100.00;102056.22;4993438;28;20477;-46
2022/07/29 03:51:52;;;;;;;7.87;7.30;;;;;;;12.90;100.00;102047.47;4993041;28;20839;-43
2022/07/29 03:54:20;;;;;;;8.30;7.70;;;;;;;13.03;100.00;102041.47;4993228;28;20434;-46
2022/07/29 03:56:50;;;;;;;9.17;8.30;;;;;;;13.15;100.00;102043.56;4993481;28;20516;-45
2022/07/29 03:59:20;;;;;;;9.37;7.93;;;;;;;13.27;100.00;102047.47;4993327;28;20437;-44
2022/07/29 04:01:49;;;;;;;8.73;8.00;;;;;;;13.44;100.00;102050.81;4992808;28;20482;-47
2022/07/29 04:04:18;;;;;;;7.77;7.27;;;;;;;13.52;100.00;102034.66;4993030;28;20485;-46
2022/07/29 04:06:47;;;;;;;8.33;7.67;;;;;;;13.54;100.00;102042.50;4993057;28;20986;-44
2022/07/29 04:09:15;;;;;;;8.00;7.40;;;;;;;13.60;100.00;102044.44;4992661;28;20998;-44
2022/07/29 04:11:43;;;;;;;8.53;7.83;;;;;;;13.69;100.00;102038.81;4992276;28;21006;-45
2022/07/29 04:14:30;;;;;;;8.43;7.73;;;;;;;13.70;99.90;102045.84;4992915;28;20480;-47
2022/07/29 04:16:58;;;;;;;8.30;7.50;;;;;;;13.78;99.97;102045.75;4992844;28;20468;-48
2022/07/29 04:19:27;;;;;;;8.70;7.90;;;;;;;13.89;99.57;102043.63;4992793;28;20924;-45
2022/07/29 04:21:55;;;;;;;7.20;6.70;;;;;;;13.96;99.32;102049.88;4992534;28;20464;-42
2022/07/29 04:24:22;;;;;;;8.10;7.60;;;;;;;14.03;98.25;102054.34;4992847;28;20441;-45
2022/07/29 04:26:50;;;;;;;7.93;7.43;;;;;;;14.14;98.36;102056.53;4992920;28;20462;-44
2022/07/29 04:29:18;;;;;;;8.30;7.70;;;;;;;14.18;96.78;102041.72;4992972;28;20482;-44
2022/07/29 04:31:45;;;;;;;8.07;7.57;;;;;;;14.23;95.88;102041.97;4992721;28;20458;-43
2022/07/29 04:34:13;;;;;;;8.37;7.77;;;;;;;14.26;95.20;102048.81;4992784;28;20477;-43
2022/07/29 04:36:42;;;;;;;7.57;7.03;;;;;;;14.36;95.06;102041.34;4993177;28;20450;-44
2022/07/29 04:39:10;;;;;;;7.90;7.30;;;;;;;14.36;93.04;102041.34;4993205;28;20437;-43
2022/07/29 04:41:37;;;;;;;8.13;7.63;;;;;;;14.38;93.42;102041.97;4992560;28;20465;-42
2022/07/29 04:44:05;;;;;;;8.47;7.63;;;;;;;14.55;94.28;102040.69;4992570;28;20434;-44
2022/07/29 04:46:35;;;;;;;7.97;7.57;;;;;;;14.82;94.42;102042.63;4992414;28;20528;-44
2022/07/29 04:49:03;;;;;;;8.53;7.83;;;;;;;15.19;92.85;102032.59;4992809;28;20535;-49
2022/07/29 04:51:31;;;;;;;8.30;7.50;;;;;;;15.39;91.63;102041.63;4992324;28;20871;-46
2022/07/29 04:54:00;;;;;;;7.43;7.00;;;;;;;15.75;91.98;102036.06;4992360;28;20434;-47
2022/07/29 04:56:28;;;;;;;8.30;7.70;;;;;;;16.17;89.62;102035.03;4992277;28;20821;-44
2022/07/29 04:58:55;;;;;;;8.30;7.80;;;;;;;16.40;86.75;102043.56;4991758;28;20448;-44
2022/07/29 05:01:23;;;;;;;8.90;8.00;;;;;;;16.67;82.73;102041.78;4990672;28;20990;-45
2022/07/29 05:03:51;;;;;;;7.90;7.50;;;;;;;16.75;82.57;102036.22;4992037;28;20525;-45
2022/07/29 05:06:24;;;;;;;8.00;7.50;;;;;;;16.84;81.76;102043.06;4992375;28;20463;-44
2022/07/29 05:08:52;;;;;;;8.60;8.00;;;;;;;16.94;81.35;102038.91;4992413;28;20444;-46
2022/07/29 05:11:21;;;;;;;8.97;8.37;;;;;;;16.95;80.57;102035.19;4991912;28;20474;-45
2022/07/29 05:13:54;;;;;;;8.07;7.37;;;;;;;16.93;79.67;102048.06;4992312;28;20760;-49
2022/07/29 05:16:22;;;;;;;8.70;8.00;;;;;;;16.71;80.67;102035.81;4991556;28;20875;-44
2022/07/29 05:18:49;;;;;;;10.30;8.00;;;;;;;16.86;81.33;102041.84;4991484;28;20462;-45
2022/07/29 05:21:17;;;;;;;7.93;7.47;;;;;;;16.80;81.13;102033.75;4992016;28;20461;-47
2022/07/29 05:23:45;;;;;;;7.70;7.10;;;;;;;16.74;80.64;102043.47;4992326;28;20433;-44
2022/07/29 05:26:12;;;;;;;8.10;7.60;;;;;;;16.54;80.88;102042.63;4992289;28;20464;-43
2022/07/29 05:28:41;;;;;;;7.63;7.23;;;;;;;16.50;82.51;102036.78;4992575;28;21094;-45
2022/07/29 05:31:09;;;;;;;8.57;7.77;;;;;;;16.52;83.04;102036.56;4991830;28;20462;-46
2022/07/29 05:33:37;;;;;;;8.13;7.60;;;;;;;16.63;83.68;102041.41;4985733;28;20442;-47
2022/07/29 05:36:06;;;;;;;8.03;7.43;;;;;;;16.88;83.42;102034.34;4994515;28;20465;-41
2022/07/29 05:38:35;;;;;;;7.20;6.60;;;;;;;17.19;81.97;102027.50;4994511;28;20437;-43
2022/07/29 05:41:02;;;;;;;7.47;6.93;;;;;;;17.36;79.01;102037.66;4994592;28;20432;-44
2022/07/29 05:43:30;;;;;;;8.03;7.40;;;;;;;17.38;76.84;102034.75;4994671;28;20434;-49
2022/07/29 05:45:59;;;;;;;7.53;7.20;;;;;;;17.83;79.27;102031.13;4994693;28;20462;-46
2022/07/29 05:48:27;;;;;;;7.83;7.20;;;;;;;18.09;77.31;102036.44;4995928;28;20432;-42
2022/07/29 05:50:55;;;;;;;7.87;7.20;;;;;;;18.60;75.53;102046.38;4995539;28;20477;-42
2022/07/29 05:53:23;;;;;;;8.23;7.53;;;;;;;18.78;74.24;102038.34;4994934;28;20452;-44
2022/07/29 05:55:51;;;;;;;7.50;7.20;;;;;;;19.02;70.87;102039.41;4994746;28;20453;-47
2022/07/29 05:58:19;;;;;;;7.63;7.13;;;;;;;19.47;73.17;102040.88;4994607;28;20436;-46
2022/07/29 06:00:47;;;;;;;7.70;7.30;;;;;;;19.45;69.19;102031.31;4994805;28;20426;-45
2022/07/29 06:03:16;;;;;;;7.10;6.70;;;;;;;19.41;68.23;102036.38;4987879;28;20447;-45
2022/07/29 06:05:44;;;;;;;7.13;6.73;;;;;;;19.51;70.68;102044.78;4995582;28;20431;-44
2022/07/29 06:08:11;;;;;;;7.77;7.27;;;;;;;19.59;70.13;102038.28;4995732;28;20444;-44
2022/07/29 06:10:39;;;;;;;7.93;7.50;;;;;;;19.49;69.60;102046.06;4995685;28;20481;-46
2022/07/29 06:13:06;;;;;;;7.33;6.83;;;;;;;19.56;70.54;102047.63;4994680;28;20466;-45
2022/07/29 06:15:34;;;;;;;7.63;7.13;;;;;;;19.69;71.05;102046.66;4995765;28;20426;-41
2022/07/29 06:18:02;;;;;;;7.33;6.93;;;;;;;19.58;68.31;102037.44;4994636;28;20955;-43
2022/07/29 06:20:31;;;;;;;8.73;7.47;;;;;;;19.73;68.79;102039.75;4994494;28;20433;-41
2022/07/29 06:23:00;;;;;;;7.10;6.60;;;;;;;20.01;68.29;102040.03;4994046;28;20469;-42
2022/07/29 06:25:30;;;;;;;8.17;7.50;;;;;;;20.29;66.49;102048.47;4994534;28;20437;-42
2022/07/29 06:27:57;;;;;;;7.43;6.93;;;;;;;20.25;65.33;102049.97;4994607;28;20814;-43
2022/07/29 06:30:25;;;;;;;6.93;6.53;;;;;;;20.74;68.11;102045.31;4994506;28;20484;-46
2022/07/29 06:32:53;;;;;;;7.30;7.00;;;;;;;20.78;65.41;102044.63;4993085;28;20531;-43
2022/07/29 06:35:21;;;;;;;7.03;6.63;;;;;;;20.95;62.72;102053.72;4987792;28;20803;-45
2022/07/29 06:38:11;;;;;;;7.90;7.40;;;;;;;20.97;63.27;102057.03;4994400;28;20438;-46
2022/07/29 06:41:02;;;;;;;8.33;7.73;;;;;;;21.44;64.78;102051.69;4993944;28;20829;-46
2022/07/29 06:43:33;;;;;;;7.70;7.30;;;;;;;21.89;58.97;102055.41;4994498;28;20444;-45
2022/07/29 06:46:02;;;;;;;9.20;8.50;;;;;;;22.61;63.14;102053.81;4993151;28;20496;-43
2022/07/29 06:48:30;;;;;;;10.40;8.47;;;;;;;23.45;59.58;102053.88;4994279;28;20456;-42
2022/07/29 06:50:58;;;;;;;8.53;8.20;;;;;;;22.85;55.70;102051.03;4993631;28;20478;-42
2022/07/29 06:53:27;;;;;;;8.23;7.73;;;;;;;22.25;57.69;102053.44;4993634;28;20433;-43
2022/07/29 06:55:55;;;;;;;7.17;6.90;;;;;;;22.56;58.39;102055.63;4993707;28;20967;-46
2022/07/29 06:58:22;;;;;;;7.80;7.50;;;;;;;22.66;57.38;102052.31;4994210;28;20781;-45
2022/07/29 07:00:50;;;;;;;8.23;7.43;;;;;;;22.94;55.92;102053.06;4993553;28;20440;-42
2022/07/29 07:03:19;;;;;;;7.53;7.03;;;;;;;23.54;52.62;102046.94;4993772;28;20496;-44
2022/07/29 07:05:46;;;;;;;6.60;6.20;;;;;;;24.15;51.47;102045.84;4993751;28;20777;-42
2022/07/29 07:08:15;;;;;;;7.03;6.20;;;;;;;24.39;54.14;102036.31;4993698;28;20437;-43
2022/07/29 07:10:44;;;;;;;8.70;6.20;;;;;;;24.95;50.80;102053.22;4993589;28;20891;-44
2022/07/29 07:13:12;;;;;;;5.80;5.50;;;;;;;25.11;51.41;102038.63;4992924;28;20465;-42
2022/07/29 07:15:40;;;;;;;5.67;5.37;;;;;;;25.34;48.55;102040.94;4993694;28;20444;-42
2022/07/29 07:18:08;;;;;;;5.83;5.33;;;;;;;25.64;50.25;102043.06;4993614;28;20437;-43
2022/07/29 07:20:36;;;;;;;4.80;4.60;;;;;;;26.43;49.60;102040.94;4993455;28;20440;-43
2022/07/29 07:23:04;;;;;;;4.90;4.57;;;;;;;26.82;44.20;102036.59;4992607;28;20468;-43
2022/07/29 07:25:33;;;;;;;5.33;4.93;;;;;;;26.62;46.49;102046.69;4993246;28;20453;-42
2022/07/29 07:28:02;;;;;;;6.40;5.80;;;;;;;26.69;42.53;102033.56;4993368;28;20940;-42
2022/07/29 07:30:30;;;;;;;5.70;5.30;;;;;;;26.65;46.09;102044.22;4993323;28;20504;-43
2022/07/29 07:32:58;;;;;;;4.80;4.60;;;;;;;26.55;44.58;102040.66;4992457;28;21017;-42
2022/07/29 07:35:27;;;;;;;5.57;5.07;;;;;;;26.45;44.55;102038.72;4993143;28;20805;-46
2022/07/29 07:37:55;;;;;;;4.80;4.60;;;;;;;26.13;45.60;102046.28;4993041;28;20958;-42
2022/07/29 07:40:23;;;;;;;5.67;5.20;;;;;;;26.14;46.80;102039.72;4993413;28;20436;-42
2022/07/29 07:42:51;;;;;;;5.13;4.83;;;;;;;25.89;46.21;102045.94;4992501;28;20465;-44
2022/07/29 07:45:20;;;;;;;5.83;5.53;;;;;;;25.78;46.75;102034.13;4993142;28;20440;-42
2022/07/29 07:47:47;;;;;;;5.90;5.40;;;;;;;25.87;45.79;102037.16;4991637;28;20462;-42
2022/07/29 07:50:17;;;;;;;6.03;5.60;;;;;;;25.71;45.82;102038.19;4993182;28;20513;-42
2022/07/29 07:52:51;;;;;;;6.50;5.90;;;;;;;25.25;45.27;102034.34;4992226;28;20519;-42
2022/07/29 07:55:19;;;;;;;6.57;5.70;;;;;;;24.86;45.86;102041.13;4993122;28;20437;-42
2022/07/29 07:57:48;;;;;;;6.90;6.50;;;;;;;24.22;48.73;102033.66;4992836;28;20464;-42
2022/07/29 08:00:17;;;;;;;6.50;6.10;;;;;;;24.04;47.87;102033.97;4992816;28;20820;-42
2022/07/29 08:02:46;;;;;;;5.73;5.33;;;;;;;24.13;47.36;102026.22;4979136;28;20474;-43
2022/07/29 08:05:16;;;;;;;5.13;4.83;;;;;;;23.83;47.78;102025.81;4992739;28;20559;-42
2022/07/29 08:07:45;;;;;;;9.97;4.30;;;;;;;23.74;45.71;102024.63;4992389;28;20512;-43
2022/07/29 08:10:14;;;;;;;15.40;4.70;;;;;;;23.69;46.16;102018.00;4992511;28;20437;-42
2022/07/29 08:12:42;;;;;;;4.43;4.03;;;;;;;23.69;46.82;102025.34;4991529;28;20504;-42
2022/07/29 08:15:10;;;;;;;4.77;4.50;;;;;;;23.40;47.70;102021.16;4992024;28;20444;-42
2022/07/29 08:17:37;;;;;;;4.80;4.33;;;;;;;23.46;48.49;102029.16;4992546;28;20457;-45
2022/07/29 08:20:07;;;;;;;5.20;4.70;;;;;;;23.16;48.65;102025.94;4992446;28;20441;-42
2022/07/29 08:22:35;;;;;;;4.90;4.53;;;;;;;23.33;48.66;102025.91;4991669;28;20816;-42
2022/07/29 08:25:02;;;;;;;4.23;3.80;;;;;;;23.42;46.74;102017.09;4992301;28;20441;-42
2022/07/29 08:27:31;;;;;;;5.13;4.03;;;;;;;23.64;47.38;102015.25;4992114;28;20461;-43
2022/07/29 08:30:10;;;;;;;3.90;3.50;;;;;;;23.63;44.79;102013.56;4992043;28;20437;-41
2022/07/29 08:32:38;;;;;;;4.33;3.83;;;;;;;23.87;43.27;102018.78;4991596;28;20469;-43
2022/07/29 08:35:25;;;;;;;8.60;5.27;;;;;;;24.22;43.34;102016.50;4985834;28;20434;-44
2022/07/29 08:37:53;;;;;;;3.53;3.10;;;;;;;24.39;44.02;102014.50;4991826;28;20823;-42
2022/07/29 08:40:23;;;;;;;3.90;3.53;;;;;;;24.42;42.55;102007.69;4992420;28;20437;-41
2022/07/29 08:43:00;;;;;;;4.87;3.47;;;;;;;24.33;42.73;102014.69;4991848;28;21179;-41
2022/07/29 08:45:30;;;;;;;4.40;3.87;;;;;;;24.34;42.71;102016.34;4991734;28;20433;-42
2022/07/29 08:47:57;;;;;;;5.63;3.70;;;;;;;24.21;41.73;102012.13;4992294;28;20989;-45
2022/07/29 08:50:26;;;;;;;4.47;3.53;;;;;;;23.96;43.26;102009.06;4991878;28;20433;-44
2022/07/29 08:52:54;;;;;;;5.57;3.80;;;;;;;23.84;43.70;102006.50;4990732;28;20482;-44
2022/07/29 08:55:27;;;;;;;3.37;3.07;;;;;;;23.87;42.75;102002.41;4990861;28;20437;-45
2022/07/29 08:57:56;;;;;;;4.43;3.00;;;;;;;23.72;42.58;102002.22;4992168;28;20553;-44
2022/07/29 09:00:25;;;;;;;3.90;3.70;;;;;;;23.80;42.85;102004.53;4992188;28;20954;-45
2022/07/29 09:02:58;;;;;;;4.57;4.27;;;;;;;23.79;42.79;102002.88;4991420;28;20465;-45
2022/07/29 09:05:28;;;;;;;6.53;4.20;;;;;;;23.74;43.11;102000.09;4992273;28;20473;-41
2022/07/29 09:07:57;;;;;;;3.83;3.53;;;;;;;23.51;44.46;102001.97;4992362;28;20442;-43
2022/07/29 09:10:25;;;;;;;4.10;3.80;;;;;;;23.31;44.45;102003.56;4994549;28;20433;-44
2022/07/29 09:12:53;;;;;;;7.63;4.20;;;;;;;23.54;43.47;102001.47;4995125;28;20970;-46
2022/07/29 09:15:20;;;;;;;5.33;3.30;;;;;;;23.50;43.14;101999.53;4995022;28;20484;-45
2022/07/29 09:17:50;;;;;;;3.80;3.50;;;;;;;23.39;45.81;102001.25;4995481;28;20453;-44
2022/07/29 09:20:19;;;;;;;4.40;4.00;;;;;;;23.38;44.68;102002.34;4995833;28;20436;-43
2022/07/29 09:22:48;;;;;;;3.73;3.10;;;;;;;23.54;43.94;102004.19;4995040;28;20472;-43
2022/07/29 09:25:33;;;;;;;3.87;3.50;;;;;;;23.75;43.16;101990.84;4995636;28;20843;-42
2022/07/29 09:28:07;;;;;;;6.27;4.30;;;;;;;23.98;43.74;101998.75;4995525;28;20811;-43
2022/07/29 09:30:35;;;;;;;4.20;3.90;;;;;;;24.06;43.24;101998.31;4995780;28;20441;-44
2022/07/29 09:33:05;;;;;;;5.23;3.97;;;;;;;24.22;43.38;101998.22;4992868;28;20485;-45
2022/07/29 09:35:33;;;;;;;3.27;3.07;;;;;;;24.20;43.24;102005.03;4990432;28;20417;-45
2022/07/29 09:38:12;;;;;;;3.47;3.27;;;;;;;24.02;43.20;101997.16;4995448;28;20443;-42
2022/07/29 09:40:40;;;;;;;4.03;3.60;;;;;;;23.99;44.08;101997.66;4995472;28;20433;-42
2022/07/29 09:43:12;;;;;;;5.07;3.50;;;;;;;24.24;44.01;101997.97;4994718;28;20465;-41
2022/07/29 09:45:40;;;;;;;4.10;3.67;;;;;;;24.35;42.81;101990.72;4995234;28;20818;-42
2022/07/29 09:48:15;;;;;;;4.17;3.77;;;;;;;24.37;42.97;101986.66;4995316;28;20441;-43
2022/07/29 09:50:46;;;;;;;3.90;3.60;;;;;;;24.26;42.69;102003.16;4995095;28;20830;-42
2022/07/29 09:53:31;;;;;;;4.57;3.80;;;;;;;24.34;42.42;102000.00;4994797;28;20477;-43
2022/07/29 09:55:59;;;;;;;5.57;3.30;;;;;;;24.13;42.89;101994.31;4995169;28;20453;-44
2022/07/29 09:58:27;;;;;;;3.70;3.33;;;;;;;23.95;42.83;101985.66;4995177;28;20445;-42
2022/07/29 10:00:56;;;;;;;4.90;3.50;;;;;;;23.97;43.52;101987.03;4994530;28;20433;-42
2022/07/29 10:03:24;;;;;;;4.67;4.00;;;;;;;23.96;43.28;101985.38;4994645;28;20429;-42
2022/07/29 10:06:09;;;;;;;3.70;3.40;;;;;;;24.01;44.52;101999.06;4994954;28;20457;-43
2022/07/29 10:08:38;;;;;;;4.13;3.30;;;;;;;24.34;44.47;101989.09;4995107;28;20425;-42
2022/07/29 10:11:13;;;;;;;4.30;3.60;;;;;;;24.44;43.59;101997.34;4994362;28;20441;-44
2022/07/29 10:13:42;;;;;;;6.83;3.87;;;;;;;24.52;43.76;101984.06;4993871;28;20989;-42
2022/07/29 10:16:10;;;;;;;3.67;3.20;;;;;;;24.44;43.16;101983.72;4994601;28;20449;-42
2022/07/29 10:18:42;;;;;;;5.00;3.70;;;;;;;24.34;44.64;101983.63;4994826;28;20433;-42
2022/07/29 10:21:10;;;;;;;3.97;3.67;;;;;;;24.54;44.58;101989.28;4993981;28;20460;-44
2022/07/29 10:23:50;;;;;;;6.40;4.00;;;;;;;24.54;44.07;101983.81;4994375;28;20429;-42
2022/07/29 10:26:18;;;;;;;4.80;3.80;;;;;;;24.77;43.77;101991.66;4994372;28;20469;-41
2022/07/29 10:28:46;;;;;;;5.43;4.20;;;;;;;24.88;43.18;101981.69;4994721;28;20483;-42
2022/07/29 10:31:23;;;;;;;4.10;3.90;;;;;;;24.83;44.23;101987.91;4993969;28;20584;-42
2022/07/29 10:34:05;;;;;;;4.80;4.27;;;;;;;24.57;46.11;101986.03;4991635;28;20477;-43
2022/07/29 10:36:43;;;;;;;5.07;3.70;;;;;;;24.59;45.63;101987.41;4989971;28;20544;-44
2022/07/29 10:39:24;;;;;;;6.53;3.50;;;;;;;24.20;47.04;101986.75;4993174;28;20993;-42
2022/07/29 10:42:12;;;;;;;6.17;4.23;;;;;;;24.34;47.08;101983.63;4986847;28;20501;-42
2022/07/29 10:44:44;;;;;;;5.17;4.30;;;;;;;24.23;47.84;101991.69;4993135;28;20915;-44
2022/07/29 10:47:21;;;;;;;5.60;5.27;;;;;;;23.97;48.00;101978.88;4992718;28;20504;-45
2022/07/29 10:49:58;;;;;;;6.90;3.77;;;;;;;23.98;46.49;101982.41;4986459;28;20425;-45
2022/07/29 10:52:56;;;;;;;7.57;4.10;;;;;;;24.19;45.81;101987.03;5006307;28;20885;-46
2022/07/29 10:55:42;;;;;;;6.53;4.00;;;;;;;24.20;46.53;101989.50;5006964;28;20446;-42
2022/07/29 10:58:16;;;;;;;4.43;4.03;;;;;;;24.39;46.80;101984.50;5012245;28;20954;-42
2022/07/29 11:00:46;;;;;;;5.57;4.07;;;;;;;24.76;46.02;101988.09;5012847;28;20435;-42
2022/07/29 11:03:44;;;;;;;4.30;3.90;;;;;;;24.83;45.50;101987.91;5004205;28;20472;-44
2022/07/29 11:06:19;;;;;;;4.67;4.07;;;;;;;24.89;46.02;101991.50;5006951;28;20452;-43
2022/07/29 11:09:19;;;;;;;7.70;3.67;;;;;;;24.81;45.19;101994.72;5005867;28;20482;-42
2022/07/29 11:12:03;;;;;;;6.93;3.80;;;;;;;25.01;45.11;101986.66;5012253;28;20471;-42
2022/07/29 11:14:56;;;;;;;7.00;3.47;;;;;;;24.92;44.44;101988.25;5013065;28;20878;-44
2022/07/29 11:17:24;;;;;;;5.00;4.20;;;;;;;24.48;48.03;101982.13;5004357;28;20463;-44
2022/07/29 11:20:13;;;;;;;6.63;3.90;;;;;;;24.45;48.34;101979.91;5012407;28;20425;-42
2022/07/29 11:22:41;;;;;;;4.50;4.10;;;;;;;24.40;46.87;101977.94;5012076;28;20465;-42
2022/07/29 11:25:14;;;;;;;10.07;4.17;;;;;;;24.37;48.21;101981.19;5012959;28;20425;-46
2022/07/29 11:27:45;;;;;;;4.07;3.70;;;;;;;24.35;48.88;101985.25;5012687;28;20506;-42
2022/07/29 11:30:14;;;;;;;5.90;4.50;;;;;;;24.51;47.64;101979.72;5012450;28;20429;-44
2022/07/29 11:32:43;;;;;;;6.20;3.33;;;;;;;24.67;47.03;101975.22;5010788;28;20476;-43
2022/07/29 11:35:18;;;;;;;4.30;3.57;;;;;;;24.78;47.29;101979.66;5004420;28;20437;-42
2022/07/29 11:38:27;;;;;;;4.53;3.50;;;;;;;24.73;46.39;101974.97;5010552;28;20445;-42
2022/07/29 11:41:21;;;;;;;4.20;3.30;;;;;;;24.49;47.07;101972.88;5010526;28;20918;-45
2022/07/29 11:43:52;;;;;;;6.70;3.57;;;;;;;24.60;46.81;101967.25;5010960;28;20424;-42
2022/07/29 11:46:44;;;;;;;3.20;3.00;;;;;;;24.77;42.54;101973.38;5011397;28;20472;-42